Time;durP1;ratioP1;P1;durP2;ratioP2;P2;SDS_P1;SDS_P2;PMS_P1;PMS_P2;Temp;Humidity;BMP_temperature;BMP_pressure;BME280_temperature;BME280_humidity;BME280_pressure;Samples;Min_cycle;Max_cycle;Signal;HPM_P1;HPM_P2
2022/04/21 00:02:55;;;;;;;;;;;;;;;4.41;63.94;95003.28;10473142;28;1370;-71
2022/04/21 00:07:59;;;;;;;;;;;;;;;4.38;64.27;95001.13;10454540;28;1914;-71
2022/04/21 00:13:04;;;;;;;;;;;;;;;4.49;63.17;94986.84;10452761;28;1820;-71
2022/04/21 00:18:07;;;;;;;;;;;;;;;4.44;64.07;94979.63;10450237;28;1439;-71
2022/04/21 00:23:29;;;;;;;;;;;;;;;4.32;64.99;94989.63;10443158;28;2646;-71
2022/04/21 00:28:33;;;;;;;;;;;;;;;4.28;65.22;94980.56;10472761;28;1984;-73
2022/04/21 00:33:38;;;;;;;;;;;;;;;4.46;63.58;94972.22;10455341;28;1495;-71
2022/04/21 00:38:42;;;;;;;;;;;;;;;4.71;62.44;94971.59;10473310;28;1240;-71
2022/04/21 00:43:45;;;;;;;;;;;;;;;4.53;63.27;94964.00;10472611;28;1782;-71
2022/04/21 00:48:49;;;;;;;;;;;;;;;4.37;64.55;94962.28;10461286;28;1956;-71
2022/04/21 00:53:52;;;;;;;;;;;;;;;4.15;65.97;94963.16;10452207;28;1512;-71
2022/04/21 00:58:56;;;;;;;;;;;;;;;4.11;66.20;94958.59;10458745;28;1503;-71
2022/04/21 01:04:00;;;;;;;;;;;;;;;4.38;65.50;94962.00;10453452;28;1410;-71
2022/04/21 01:09:04;;;;;;;;;;;;;;;4.16;67.25;94972.75;10449617;28;1906;-72
2022/04/21 01:14:07;;;;;;;;;;;;;;;4.21;66.67;94958.69;10449928;28;1316;-72
2022/04/21 01:19:10;;;;;;;;;;;;;;;4.15;67.33;94955.19;10461366;28;2218;-71
2022/04/21 01:24:14;;;;;;;;;;;;;;;4.00;68.96;94960.34;10479891;28;1284;-71
2022/04/21 01:29:18;;;;;;;;;;;;;;;3.87;69.14;94963.41;10460834;28;1914;-71
2022/04/21 01:34:23;;;;;;;;;;;;;;;3.79;69.59;94962.81;10461500;28;1367;-72
2022/04/21 01:44:57;;;;;;;;;;;;;;;3.68;70.77;94957.66;10426251;28;1476;-70
2022/04/21 01:50:07;;;;;;;;;;;;;;;3.76;70.14;94955.38;10457414;28;1973;-71
2022/04/21 01:55:10;;;;;;;;;;;;;;;4.00;68.83;94947.06;10454998;28;1417;-71
2022/04/21 02:00:14;;;;;;;;;;;;;;;4.04;68.59;94948.16;10471052;28;1551;-72
2022/04/21 02:05:17;;;;;;;;;;;;;;;3.94;69.22;94945.41;10463373;28;2029;-71
2022/04/21 02:10:21;;;;;;;;;;;;;;;3.85;69.30;94933.63;10460759;28;1975;-71
2022/04/21 02:15:26;;;;;;;;;;;;;;;3.79;69.71;94933.56;10490957;22;1769;-73
2022/04/21 02:20:30;;;;;;;;;;;;;;;3.84;69.77;94937.34;10430998;28;1381;-72
2022/04/21 02:25:33;;;;;;;;;;;;;;;3.83;70.23;94930.44;10433366;28;1417;-72
2022/04/21 02:30:37;;;;;;;;;;;;;;;3.73;71.93;94933.78;10432065;28;1906;-73
2022/04/21 02:35:41;;;;;;;;;;;;;;;3.66;72.29;94931.31;10436671;28;1943;-72
2022/04/21 02:40:45;;;;;;;;;;;;;;;3.65;72.93;94934.25;10444584;28;1491;-73
2022/04/21 02:45:49;;;;;;;;;;;;;;;3.46;73.92;94926.59;10454846;28;1359;-73
2022/04/21 02:50:52;;;;;;;;;;;;;;;3.49;74.60;94925.28;10439906;28;1910;-72
2022/04/21 03:01:17;;;;;;;;;;;;;;;3.23;76.29;94927.66;10425977;28;1697;-72
2022/04/21 03:06:21;;;;;;;;;;;;;;;3.45;76.14;94921.53;10435352;28;1981;-72
2022/04/21 03:11:25;;;;;;;;;;;;;;;3.45;76.40;94917.03;10431718;28;1979;-72
2022/04/21 03:16:28;;;;;;;;;;;;;;;3.29;76.67;94922.41;10434679;28;2029;-72
2022/04/21 03:26:53;;;;;;;;;;;;;;;3.27;77.38;94912.03;10445213;28;1299;-72
2022/04/21 03:31:57;;;;;;;;;;;;;;;3.36;77.39;94915.06;10430265;28;1996;-73
2022/04/21 03:37:01;;;;;;;;;;;;;;;3.29;77.29;94911.78;10430643;28;1531;-72
2022/04/21 03:42:05;;;;;;;;;;;;;;;3.41;77.42;94920.44;10446862;28;1272;-72
2022/04/21 03:47:08;;;;;;;;;;;;;;;3.47;77.54;94906.94;10432629;28;1378;-72
2022/04/21 03:52:12;;;;;;;;;;;;;;;3.64;76.52;94896.22;10448873;28;1918;-72
2022/04/21 03:57:15;;;;;;;;;;;;;;;3.79;75.88;94906.19;10428110;28;1339;-73
2022/04/21 04:02:19;;;;;;;;;;;;;;;3.92;76.09;94899.66;10445560;28;1465;-72
2022/04/21 04:12:44;;;;;;;;;;;;;;;4.02;75.97;94892.59;10449025;28;2052;-72
2022/04/21 04:17:47;;;;;;;;;;;;;;;3.95;76.10;94892.00;10428393;28;1574;-72
2022/04/21 04:22:52;;;;;;;;;;;;;;;4.07;76.28;94889.13;10433193;28;1672;-72
2022/04/21 04:27:57;;;;;;;;;;;;;;;4.03;76.81;94893.38;10434442;28;1349;-73
2022/04/21 04:33:06;;;;;;;;;;;;;;;4.15;76.45;94886.03;10440488;28;1916;-74
2022/04/21 04:38:11;;;;;;;;;;;;;;;4.03;77.10;94883.53;10431372;28;1426;-70
2022/04/21 04:43:15;;;;;;;;;;;;;;;4.13;77.22;94890.78;10434520;28;1303;-72
2022/04/21 04:48:19;;;;;;;;;;;;;;;4.27;77.10;94888.50;10428984;28;2060;-71
2022/04/21 04:53:22;;;;;;;;;;;;;;;4.28;77.25;94896.25;10463874;28;1235;-72
2022/04/21 04:58:26;;;;;;;;;;;;;;;4.12;78.00;94897.16;10442640;28;1590;-73
2022/04/21 05:03:30;;;;;;;;;;;;;;;4.41;77.05;94896.84;10436371;28;1523;-71
2022/04/21 05:08:34;;;;;;;;;;;;;;;4.35;76.98;94896.00;10453909;28;1979;-72
2022/04/21 05:13:37;;;;;;;;;;;;;;;4.37;76.92;94901.88;10461119;28;1216;-72
2022/04/21 05:18:42;;;;;;;;;;;;;;;4.36;76.86;94889.63;10458086;28;1367;-72
2022/04/21 05:23:46;;;;;;;;;;;;;;;4.40;77.41;94887.28;10442435;28;1351;-71
2022/04/21 05:28:49;;;;;;;;;;;;;;;4.41;76.59;94891.53;10440459;28;1917;-72
2022/04/21 05:33:52;;;;;;;;;;;;;;;4.42;76.87;94885.16;10457492;28;1253;-73
2022/04/21 05:38:57;;;;;;;;;;;;;;;4.62;75.21;94879.94;10440610;28;1609;-73
2022/04/21 05:44:00;;;;;;;;;;;;;;;4.65;74.16;94884.75;10461328;28;1255;-75
2022/04/21 05:49:04;;;;;;;;;;;;;;;4.68;74.38;94894.09;10457025;28;1902;-73
2022/04/21 05:54:08;;;;;;;;;;;;;;;4.89;73.46;94891.25;10461828;28;1418;-72
2022/04/21 05:59:11;;;;;;;;;;;;;;;5.49;71.24;94889.09;10439027;28;1834;-73
2022/04/21 06:04:15;;;;;;;;;;;;;;;5.13;72.39;94878.31;10453907;28;1150;-72
2022/04/21 06:09:19;;;;;;;;;;;;;;;5.52;71.03;94877.09;10434637;28;1914;-71
2022/04/21 06:14:24;;;;;;;;;;;;;;;5.74;70.48;94872.34;10438082;28;1378;-72
2022/04/21 06:19:28;;;;;;;;;;;;;;;5.83;69.92;94877.94;10436486;28;1382;-74
2022/04/21 06:24:33;;;;;;;;;;;;;;;5.90;70.16;94884.63;10458665;28;1424;-73
2022/04/21 06:29:37;;;;;;;;;;;;;;;6.01;69.73;94882.78;10446745;28;1981;-73
2022/04/21 06:34:40;;;;;;;;;;;;;;;6.37;67.75;94883.59;10438820;28;1360;-73
2022/04/21 06:39:44;;;;;;;;;;;;;;;6.81;65.90;94880.31;10453779;28;1351;-73
2022/04/21 06:50:08;;;;;;;;;;;;;;;7.30;63.88;94876.91;10428978;28;1914;-71
2022/04/21 06:55:12;;;;;;;;;;;;;;;7.37;63.37;94874.75;10433598;28;1334;-72
2022/04/21 07:00:15;;;;;;;;;;;;;;;7.02;63.67;94875.69;10432410;28;1387;-72
2022/04/21 07:05:18;;;;;;;;;;;;;;;7.52;63.07;94865.84;10450268;28;1386;-73
2022/04/21 07:10:22;;;;;;;;;;;;;;;7.75;60.84;94862.50;10451562;28;1958;-72
2022/04/21 07:15:26;;;;;;;;;;;;;;;7.64;60.46;94876.22;10433986;28;1504;-73
2022/04/21 07:20:30;;;;;;;;;;;;;;;7.48;60.92;94876.28;10454968;28;1259;-74
2022/04/21 07:25:35;;;;;;;;;;;;;;;7.80;58.98;94873.16;10430611;28;2058;-73
2022/04/21 07:30:39;;;;;;;;;;;;;;;8.29;56.96;94874.94;10442211;28;1944;-73
2022/04/21 07:35:43;;;;;;;;;;;;;;;8.65;55.13;94872.78;10453923;28;1287;-73
2022/04/21 07:40:50;;;;;;;;;;;;;;;8.99;52.61;94865.72;10435630;28;1427;-73
2022/04/21 07:45:54;;;;;;;;;;;;;;;8.69;52.28;94872.19;10460009;28;1426;-70
2022/04/21 07:50:58;;;;;;;;;;;;;;;9.46;51.55;94864.88;10457663;28;1882;-73
2022/04/21 07:56:02;;;;;;;;;;;;;;;9.53;51.84;94873.38;10471878;28;1371;-71
2022/04/21 08:01:12;;;;;;;;;;;;;;;9.47;50.62;94869.16;10481364;28;1348;-71
2022/04/21 08:06:16;;;;;;;;;;;;;;;9.61;50.42;94870.06;10483924;28;1241;-72
2022/04/21 08:11:20;;;;;;;;;;;;;;;9.73;50.88;94870.44;10467869;28;1910;-72
2022/04/21 08:16:24;;;;;;;;;;;;;;;10.28;50.01;94870.69;10468988;22;1975;-72
2022/04/21 08:21:27;;;;;;;;;;;;;;;9.92;50.35;94866.91;10458112;28;1308;-72
2022/04/21 08:37:33;;;;;;;;;;;;;;;10.45;49.08;94864.00;10451171;28;1366;-71
2022/04/21 08:42:37;;;;;;;;;;;;;;;10.82;47.62;94863.88;10447446;28;1784;-71
2022/04/21 08:47:42;;;;;;;;;;;;;;;10.94;45.73;94860.69;10447822;28;1516;-72
2022/04/21 08:52:46;;;;;;;;;;;;;;;10.52;47.04;94862.50;10441492;28;1964;-71
2022/04/21 08:57:51;;;;;;;;;;;;;;;10.27;47.81;94855.66;10433831;28;1386;-71
2022/04/21 09:02:55;;;;;;;;;;;;;;;10.51;47.22;94862.81;10419167;28;1490;-70
2022/04/21 09:07:59;;;;;;;;;;;;;;;10.89;45.77;94868.06;10426694;28;1370;-71
2022/04/21 09:13:22;;;;;;;;;;;;;;;10.44;46.90;94859.72;10448996;28;1977;-71
2022/04/21 09:18:26;;;;;;;;;;;;;;;10.80;45.82;94851.78;10427243;28;1360;-71
2022/04/21 09:23:29;;;;;;;;;;;;;;;10.72;42.99;94852.50;10426856;28;1307;-71
2022/04/21 09:28:33;;;;;;;;;;;;;;;10.89;45.11;94847.34;10449489;28;1335;-73
2022/04/21 09:33:37;;;;;;;;;;;;;;;10.88;46.27;94839.56;10429075;28;1891;-71
2022/04/21 09:38:40;;;;;;;;;;;;;;;11.38;45.49;94837.75;10434701;28;1414;-71
2022/04/21 09:43:44;;;;;;;;;;;;;;;11.97;45.63;94822.50;10457336;28;1243;-71
2022/04/21 09:48:48;;;;;;;;;;;;;;;11.73;45.34;94836.19;10426020;28;1663;-71
2022/04/21 09:53:52;;;;;;;;;;;;;;;11.88;45.90;94830.50;10436188;28;2110;-72
2022/04/21 09:58:56;;;;;;;;;;;;;;;11.92;43.21;94811.84;10432030;28;1911;-71
2022/04/21 10:04:00;;;;;;;;;;;;;;;11.77;42.90;94812.97;10438350;28;1239;-72
2022/04/21 10:09:04;;;;;;;;;;;;;;;11.98;44.51;94801.75;10450418;28;1431;-71
2022/04/21 10:14:07;;;;;;;;;;;;;;;11.97;42.26;94803.66;10437025;28;1992;-71
2022/04/21 10:19:11;;;;;;;;;;;;;;;12.44;42.78;94793.31;10430619;28;1506;-73
2022/04/21 10:24:15;;;;;;;;;;;;;;;12.25;42.38;94785.44;10455834;28;1200;-72
2022/04/21 10:29:18;;;;;;;;;;;;;;;12.29;39.59;94786.44;10431504;28;1382;-72
2022/04/21 10:34:22;;;;;;;;;;;;;;;12.25;38.80;94780.06;10435695;28;1938;-72
2022/04/21 10:39:27;;;;;;;;;;;;;;;12.18;40.96;94785.09;10431606;28;1685;-72
2022/04/21 10:44:30;;;;;;;;;;;;;;;12.18;39.74;94777.78;10437410;28;1488;-71
2022/04/21 10:49:35;;;;;;;;;;;;;;;12.09;39.99;94781.56;10432849;28;1415;-72
2022/04/21 10:59:59;;;;;;;;;;;;;;;11.90;37.56;94758.28;10388022;28;1468;-72
2022/04/21 11:05:02;;;;;;;;;;;;;;;11.75;39.87;94758.59;10451154;28;1384;-71
2022/04/21 11:10:06;;;;;;;;;;;;;;;12.26;39.94;94741.22;10433322;28;1906;-71
2022/04/21 11:15:19;;;;;;;;;;;;;;;11.99;39.11;94738.69;10432226;28;1344;-71
2022/04/21 11:20:22;;;;;;;;;;;;;;;12.21;39.47;94740.56;10453250;28;1121;-71
2022/04/21 11:25:26;;;;;;;;;;;;;;;12.77;38.23;94737.16;10434288;28;1778;-71
2022/04/21 11:30:30;;;;;;;;;;;;;;;12.45;39.38;94741.78;10430578;28;1886;-71
2022/04/21 11:35:38;;;;;;;;;;;;;;;12.41;38.34;94745.44;10434893;28;1785;-71
2022/04/21 11:40:41;;;;;;;;;;;;;;;12.20;38.60;94733.56;10449129;28;1445;-71
2022/04/21 11:45:46;;;;;;;;;;;;;;;12.26;38.89;94733.13;10430665;28;1387;-71
2022/04/21 11:50:50;;;;;;;;;;;;;;;12.41;38.73;94724.66;10426709;28;1911;-71
2022/04/21 11:55:54;;;;;;;;;;;;;;;12.62;38.30;94724.91;10440989;28;1324;-71
2022/04/21 12:06:32;;;;;;;;;;;;;;;12.81;38.30;94705.78;10435248;28;1587;-70
2022/04/21 12:11:36;;;;;;;;;;;;;;;12.75;37.79;94707.03;10429873;28;1989;-71
2022/04/21 12:16:40;;;;;;;;;;;;;;;12.96;37.75;94701.84;10447072;28;1306;-72
2022/04/21 12:21:43;;;;;;;;;;;;;;;12.98;37.42;94689.63;10435053;28;1313;-71
2022/04/21 12:26:47;;;;;;;;;;;;;;;13.21;36.90;94697.63;10430502;28;1316;-71
2022/04/21 12:31:51;;;;;;;;;;;;;;;13.07;37.90;94700.44;10446328;28;1989;-71
2022/04/21 12:36:55;;;;;;;;;;;;;;;13.34;36.55;94690.50;10437065;28;1526;-71
2022/04/21 12:42:01;;;;;;;;;;;;;;;13.45;36.89;94679.06;10432577;28;1341;-72
2022/04/21 12:47:04;;;;;;;;;;;;;;;13.70;37.23;94673.97;10434722;28;1524;-74
2022/04/21 12:52:08;;;;;;;;;;;;;;;13.59;37.31;94667.31;10439714;28;1977;-72
2022/04/21 12:57:12;;;;;;;;;;;;;;;13.72;37.22;94669.03;10455066;28;1504;-71
2022/04/21 13:02:15;;;;;;;;;;;;;;;13.79;37.19;94666.63;10442063;28;1818;-71
2022/04/21 13:07:19;;;;;;;;;;;;;;;13.79;36.85;94663.94;10437719;28;1348;-71
2022/04/21 13:12:23;;;;;;;;;;;;;;;13.85;36.53;94665.34;10454401;28;1972;-72
2022/04/21 13:17:26;;;;;;;;;;;;;;;13.83;37.13;94659.50;10438238;28;1427;-72
2022/04/21 13:22:30;;;;;;;;;;;;;;;13.92;36.96;94662.94;10436727;28;1944;-72
2022/04/21 13:27:33;;;;;;;;;;;;;;;13.99;37.17;94647.03;10455027;28;1434;-72
2022/04/21 13:37:57;;;;;;;;;;;;;;;13.98;36.97;94650.88;10435325;28;1378;-71
2022/04/21 13:43:01;;;;;;;;;;;;;;;14.14;36.67;94642.25;10448870;28;2525;-72
2022/04/21 13:48:24;;;;;;;;;;;;;;;14.22;37.06;94639.50;10457777;28;1530;-71
2022/04/21 13:53:28;;;;;;;;;;;;;;;14.22;37.15;94623.28;10440288;28;1969;-72
2022/04/21 13:58:31;;;;;;;;;;;;;;;14.25;36.92;94632.66;10437821;28;1503;-73
2022/04/21 14:03:36;;;;;;;;;;;;;;;14.30;37.15;94625.16;10455395;28;1134;-72
2022/04/21 14:08:44;;;;;;;;;;;;;;;14.48;37.50;94625.91;10450708;28;1395;-70
2022/04/21 14:13:50;;;;;;;;;;;;;;;13.96;37.69;94628.00;10437762;28;1917;-72
2022/04/21 14:18:53;;;;;;;;;;;;;;;14.45;37.65;94621.13;10458093;22;1929;-72
2022/04/21 14:23:56;;;;;;;;;;;;;;;14.63;37.76;94610.22;10475691;28;1292;-73
2022/04/21 14:29:00;;;;;;;;;;;;;;;14.45;37.56;94607.63;10470273;28;1378;-73
2022/04/21 14:34:03;;;;;;;;;;;;;;;14.34;38.09;94598.28;10480092;28;1942;-73
2022/04/21 14:44:27;;;;;;;;;;;;;;;14.45;38.01;94590.59;10471272;28;1276;-73
2022/04/21 14:49:31;;;;;;;;;;;;;;;14.63;38.35;94585.88;10470891;28;1388;-73
2022/04/21 14:54:35;;;;;;;;;;;;;;;14.24;38.90;94585.91;10473885;28;1988;-73
2022/04/21 14:59:39;;;;;;;;;;;;;;;14.14;38.64;94597.09;10473084;28;1362;-72
2022/04/21 15:04:43;;;;;;;;;;;;;;;14.55;38.39;94585.63;10480030;28;1267;-73
2022/04/21 15:09:47;;;;;;;;;;;;;;;14.44;38.72;94589.81;10465258;28;1678;-73
2022/04/21 15:14:50;;;;;;;;;;;;;;;14.57;38.50;94582.63;10473442;28;1999;-73
2022/04/21 15:19:54;;;;;;;;;;;;;;;14.71;38.38;94582.38;10481397;28;1414;-73
2022/04/21 15:24:57;;;;;;;;;;;;;;;14.57;38.18;94580.69;10454863;28;1550;-73
2022/04/21 15:30:00;;;;;;;;;;;;;;;14.45;38.36;94593.31;10476972;28;1394;-73
2022/04/21 15:35:04;;;;;;;;;;;;;;;14.40;38.48;94580.75;10476466;28;1965;-74
2022/04/21 15:40:07;;;;;;;;;;;;;;;14.00;39.29;94581.09;10479687;28;1299;-74
2022/04/21 15:45:10;;;;;;;;;;;;;;;13.90;39.38;94572.56;10465065;28;1256;-73
2022/04/21 15:50:13;;;;;;;;;;;;;;;14.28;39.19;94572.56;10472999;28;1806;-74
2022/04/21 16:00:38;;;;;;;;;;;;;;;13.87;39.33;94571.31;10459428;28;1442;-73
2022/04/21 16:05:41;;;;;;;;;;;;;;;13.95;38.86;94565.06;10458449;28;1588;-73
2022/04/21 16:10:44;;;;;;;;;;;;;;;13.72;39.43;94567.19;10458539;28;1472;-73
2022/04/21 16:15:48;;;;;;;;;;;;;;;13.65;39.10;94558.00;10478631;28;1917;-73
2022/04/21 16:20:51;;;;;;;;;;;;;;;13.50;39.13;94554.72;10481243;28;1281;-74
2022/04/21 16:25:54;;;;;;;;;;;;;;;13.38;38.77;94562.69;10471762;28;1365;-74
2022/04/21 16:30:58;;;;;;;;;;;;;;;13.36;38.97;94573.03;10460765;28;1832;-74
2022/04/21 16:36:02;;;;;;;;;;;;;;;13.18;39.51;94553.31;10474252;28;1906;-73
2022/04/21 16:41:05;;;;;;;;;;;;;;;13.14;39.75;94554.28;10454684;28;1420;-74
2022/04/21 16:46:09;;;;;;;;;;;;;;;13.16;40.29;94552.03;10455944;28;1494;-73
2022/04/21 16:51:12;;;;;;;;;;;;;;;13.07;40.60;94551.25;10473757;28;1436;-73
2022/04/21 16:56:16;;;;;;;;;;;;;;;12.91;40.93;94542.84;10454526;28;1440;-72
2022/04/21 17:06:42;;;;;;;;;;;;;;;12.72;41.07;94556.63;10468082;28;1451;-75
2022/04/21 17:11:47;;;;;;;;;;;;;;;12.64;41.61;94560.13;10472586;28;1963;-73
2022/04/21 17:16:50;;;;;;;;;;;;;;;12.49;41.88;94550.59;10472024;28;1367;-73
2022/04/21 17:21:54;;;;;;;;;;;;;;;12.40;41.68;94555.97;10466587;28;1248;-74
2022/04/21 17:26:57;;;;;;;;;;;;;;;12.31;42.38;94554.38;10453778;28;2021;-72
2022/04/21 17:32:02;;;;;;;;;;;;;;;12.25;42.45;94551.03;10474903;28;1969;-74
2022/04/21 17:37:05;;;;;;;;;;;;;;;12.14;43.43;94557.81;10463433;28;1956;-73
2022/04/21 17:42:10;;;;;;;;;;;;;;;12.09;43.32;94560.66;10457606;28;1412;-72
2022/04/21 17:47:13;;;;;;;;;;;;;;;11.97;43.12;94566.66;10470173;28;1303;-73
2022/04/21 17:52:16;;;;;;;;;;;;;;;11.85;44.13;94561.84;10452566;28;1886;-73
2022/04/21 17:57:19;;;;;;;;;;;;;;;11.72;44.66;94565.41;10462786;28;1341;-73
2022/04/21 18:02:23;;;;;;;;;;;;;;;11.55;44.75;94568.78;10480799;28;1374;-73
2022/04/21 18:07:33;;;;;;;;;;;;;;;11.38;45.72;94574.84;10456182;28;1365;-73
2022/04/21 18:12:38;;;;;;;;;;;;;;;11.22;46.46;94560.22;10467943;28;1953;-74
2022/04/21 18:17:41;;;;;;;;;;;;;;;11.19;47.02;94574.25;10458862;28;1500;-74
2022/04/21 18:22:44;;;;;;;;;;;;;;;11.10;47.04;94568.03;10484575;28;1417;-73
2022/04/21 18:27:48;;;;;;;;;;;;;;;11.01;47.33;94569.88;10469323;28;2083;-73
2022/04/21 18:32:51;;;;;;;;;;;;;;;10.84;47.93;94575.91;10479619;28;1918;-73
2022/04/21 18:37:54;;;;;;;;;;;;;;;10.80;48.92;94577.59;10475537;28;1397;-73
2022/04/21 18:42:59;;;;;;;;;;;;;;;10.73;49.02;94580.72;10486391;28;1701;-74
2022/04/21 18:48:02;;;;;;;;;;;;;;;10.60;49.44;94586.91;10476566;28;1493;-73
2022/04/21 18:53:05;;;;;;;;;;;;;;;10.55;49.17;94579.75;10470440;28;1910;-72
2022/04/21 18:58:24;;;;;;;;;;;;;;;10.40;50.39;94572.03;10478219;28;1361;-73
2022/04/21 19:03:27;;;;;;;;;;;;;;;10.29;50.66;94574.13;10475223;28;1576;-71
2022/04/21 19:13:51;;;;;;;;;;;;;;;10.07;53.13;94574.03;10455928;28;1906;-74
2022/04/21 19:18:55;;;;;;;;;;;;;;;9.92;53.45;94577.00;10474156;28;1616;-73
2022/04/21 19:23:58;;;;;;;;;;;;;;;9.73;53.20;94575.22;10465643;28;1307;-74
2022/04/21 19:29:02;;;;;;;;;;;;;;;9.68;52.65;94580.69;10475208;28;1330;-73
2022/04/21 19:34:05;;;;;;;;;;;;;;;9.61;53.39;94582.97;10475847;28;1967;-72
2022/04/21 19:39:09;;;;;;;;;;;;;;;9.57;55.04;94581.97;10467063;28;1401;-75
2022/04/21 19:44:12;;;;;;;;;;;;;;;9.55;56.59;94567.25;10476903;28;1218;-73
2022/04/21 19:49:16;;;;;;;;;;;;;;;9.42;57.94;94564.25;10477831;28;1608;-73
2022/04/21 19:54:20;;;;;;;;;;;;;;;9.42;59.19;94566.16;10458947;28;1984;-74
2022/04/21 19:59:24;;;;;;;;;;;;;;;9.39;59.84;94558.69;10472204;28;1358;-74
2022/04/21 20:04:29;;;;;;;;;;;;;;;9.28;60.53;94551.88;10460318;28;1502;-71
2022/04/21 20:09:33;;;;;;;;;;;;;;;9.26;61.32;94554.09;10469095;28;1837;-73
2022/04/21 20:14:37;;;;;;;;;;;;;;;9.12;61.77;94554.84;10471878;28;1906;-73
2022/04/21 20:30:24;;;;;;;;;;;;;;;8.88;64.08;94530.84;10466524;28;1436;-78
2022/04/21 20:35:30;;;;;;;;;;;;;;;8.86;64.12;94521.50;10499184;28;1890;-80
2022/04/21 20:40:34;;;;;;;;;;;;;;;8.83;64.91;94522.09;10497299;28;1358;-79
2022/04/21 20:45:43;;;;;;;;;;;;;;;8.65;66.37;94519.16;10474080;28;1638;-78
2022/04/21 20:50:47;;;;;;;;;;;;;;;8.68;66.48;94514.28;10479199;28;1819;-78
2022/04/21 20:55:51;;;;;;;;;;;;;;;8.53;66.88;94510.78;10477189;28;1954;-77
2022/04/21 21:01:06;;;;;;;;;;;;;;;8.49;67.03;94508.97;10500156;28;1369;-77
2022/04/21 21:07:05;;;;;;;;;;;;;;;8.39;68.25;94499.19;10506059;28;1268;-80
2022/04/21 21:11:36;;;;;;;;;;;;;;;8.26;69.02;94515.94;10481644;28;1411;-79
2022/04/21 21:16:43;;;;;;;;;;;;;;;8.20;69.50;94507.19;10501310;28;1886;-78
2022/04/21 21:21:46;;;;;;;;;;;;;;;8.08;69.78;94509.53;10484942;28;1423;-81
2022/04/21 21:26:51;;;;;;;;;;;8.90;99.90;;;8.05;70.58;94497.50;10472174;28;1765;-77
2022/04/21 21:31:55;;;;;;;;;;;9.00;99.90;;;7.98;71.15;94494.38;10493686;28;1353;-77
2022/04/21 21:36:59;;;;;;;;;;;;;;;7.86;71.47;94488.66;10478623;28;1956;-79
2022/04/21 21:42:02;;;;;;;;;;;;;;;7.82;71.69;94479.59;10496790;28;1253;-79
2022/04/21 21:47:07;;;;;;;;;;;;;;;7.65;72.51;94480.09;10494236;28;1380;-79
2022/04/21 21:57:33;;;;;;;;;;;;;;;7.51;73.60;94473.84;10497371;28;1421;-80
2022/04/21 22:02:36;;;;;;;;;;;;;;;7.46;74.17;94465.88;10479170;28;1645;-80
2022/04/21 22:07:39;;;;;;;;;;;;;;;7.35;75.53;94467.88;10464390;28;1439;-78
2022/04/21 22:12:44;;;;;;;;;;;;;;;7.24;75.88;94463.72;10492490;28;1894;-79
2022/04/21 22:17:48;;;;;;;;;;;;;;;7.18;76.59;94448.81;10458860;28;1544;-78
2022/04/21 22:22:52;;;;;;;;;;;;;;;7.09;77.23;94442.50;10472311;28;1679;-80
2022/04/21 22:27:55;;;;;;;;;;;7.90;99.90;;;6.96;77.62;94430.63;10469448;28;1469;-79
2022/04/21 22:33:03;;;;;;;;;;;7.90;99.90;;;6.93;77.82;94433.84;10464772;28;1914;-78
2022/04/21 22:38:08;;;;;;;;;;;8.00;99.90;;;6.82;78.92;94435.84;10459491;28;1655;-76
2022/04/21 22:43:11;;;;;;;;;;;7.80;99.90;;;6.78;79.74;94435.59;10498212;28;1182;-78
2022/04/21 22:48:14;;;;;;;;;;;7.80;99.90;;;6.70;80.16;94422.88;10484650;28;1418;-78
2022/04/21 22:53:17;;;;;;;;;;;7.80;99.90;;;6.62;80.88;94425.34;10462528;28;1910;-80
2022/04/21 22:58:20;;;;;;;;;;;7.70;99.90;;;6.57;81.03;94428.88;10464428;28;1566;-79
2022/04/21 23:03:24;;;;;;;;;;;;;;;6.50;81.76;94426.53;10482669;28;1647;-79
2022/04/21 23:08:27;;;;;;;;;;;;;;;6.43;81.97;94415.38;10466520;28;1804;-78
2022/04/21 23:13:30;;;;;;;;;;;;;;;6.37;82.80;94419.16;10485271;28;1913;-78
2022/04/21 23:18:33;;;;;;;;;;;7.10;99.90;;;6.32;82.96;94411.19;10481485;28;1453;-78
2022/04/21 23:23:38;;;;;;;;;;;7.20;99.90;;;6.27;83.57;94405.09;10460630;28;1357;-78
2022/04/21 23:28:41;;;;;;;;;;;;;;;6.12;84.62;94406.03;10478326;28;1331;-78
2022/04/21 23:33:45;;;;;;;;;;;;;;;6.16;84.28;94393.69;10495619;28;1957;-80
2022/04/21 23:38:50;;;;;;;;;;;;;;;6.13;84.89;94386.28;10474999;28;1393;-78
2022/04/21 23:43:54;;;;;;;;;;;;;;;6.04;85.67;94382.59;10488665;28;1287;-77
2022/04/21 23:48:58;;;;;;;;;;;;;;;5.93;86.14;94372.00;10492979;28;1487;-80
2022/04/21 23:54:01;;;;;;;;;;;;;;;5.88;86.54;94358.69;10474704;28;1910;-78
2022/04/21 23:59:05;;;;;;;;;;;;;;;5.91;86.70;94363.47;10461316;28;1666;-77
